Egor'evsk, Russia
Current Conditions -  °F | °C
As of 11:30 PM on Saturday 25 Oct 2014 (Local Time) from UUDD Reporting Station
Clear Clear  
Wind Chill: 19°   Ceiling: Unl
Heat Index: 25°   Visibility: 6mi
Dew Point: 14°   Wind: 4mph
Humidity: 64%   Direction: 200°SSW
Pressure: 30.59"   Gusts: NA
Location:  55.38°N, 39.04°E
Report Text: UUDD 252030Z 20002MPS CAVOK M04/M10 Q1036 64150095 NOSIG
Loading
Personal Weather Stations






























Interactive Weather Map
Tropical Storm Tracking
New forecast layout! Learn more

10-Day Weather Forecast

Advertisements
Track Severe Weather on mobile